sensor_id;sensor_type;location;lat;lon;timestamp;P1;durP1;ratioP1;P2;durP2;ratioP2
21943;SDS011;11136;48.778;9.126;2023-05-07T00:00:38;7.90;;;5.50;;
21943;SDS011;11136;48.778;9.126;2023-05-07T00:03:05;7.88;;;4.75;;
21943;SDS011;11136;48.778;9.126;2023-05-07T00:05:31;6.53;;;4.07;;
21943;SDS011;11136;48.778;9.126;2023-05-07T00:07:57;4.72;;;2.75;;
21943;SDS011;11136;48.778;9.126;2023-05-07T00:10:22;4.75;;;3.25;;
21943;SDS011;11136;48.778;9.126;2023-05-07T00:12:48;5.63;;;3.10;;
21943;SDS011;11136;48.778;9.126;2023-05-07T00:15:14;3.83;;;2.83;;
21943;SDS011;11136;48.778;9.126;2023-05-07T00:17:39;5.53;;;2.92;;
21943;SDS011;11136;48.778;9.126;2023-05-07T00:20:05;4.03;;;2.58;;
21943;SDS011;11136;48.778;9.126;2023-05-07T00:22:31;4.03;;;2.88;;
21943;SDS011;11136;48.778;9.126;2023-05-07T00:24:57;5.80;;;3.03;;
21943;SDS011;11136;48.778;9.126;2023-05-07T00:27:23;4.05;;;2.88;;
21943;SDS011;11136;48.778;9.126;2023-05-07T00:29:49;2.88;;;2.20;;
21943;SDS011;11136;48.778;9.126;2023-05-07T00:32:14;3.15;;;2.33;;
21943;SDS011;11136;48.778;9.126;2023-05-07T00:34:40;3.53;;;2.83;;
21943;SDS011;11136;48.778;9.126;2023-05-07T00:37:06;4.65;;;2.90;;
21943;SDS011;11136;48.778;9.126;2023-05-07T00:39:35;4.65;;;2.65;;
21943;SDS011;11136;48.778;9.126;2023-05-07T00:42:01;5.95;;;2.25;;
21943;SDS011;11136;48.778;9.126;2023-05-07T00:44:28;4.72;;;2.45;;
21943;SDS011;11136;48.778;9.126;2023-05-07T00:46:55;2.95;;;1.90;;
21943;SDS011;11136;48.778;9.126;2023-05-07T00:49:22;3.95;;;2.40;;
21943;SDS011;11136;48.778;9.126;2023-05-07T00:51:58;3.97;;;2.60;;
21943;SDS011;11136;48.778;9.126;2023-05-07T00:54:25;7.25;;;2.42;;
21943;SDS011;11136;48.778;9.126;2023-05-07T00:56:51;3.67;;;2.25;;
21943;SDS011;11136;48.778;9.126;2023-05-07T00:59:17;7.22;;;2.58;;
21943;SDS011;11136;48.778;9.126;2023-05-07T01:01:42;5.95;;;2.30;;
21943;SDS011;11136;48.778;9.126;2023-05-07T01:04:08;3.13;;;2.40;;
21943;SDS011;11136;48.778;9.126;2023-05-07T01:06:34;3.80;;;2.40;;
21943;SDS011;11136;48.778;9.126;2023-05-07T01:08:59;3.38;;;2.70;;
21943;SDS011;11136;48.778;9.126;2023-05-07T01:11:26;3.45;;;2.47;;
21943;SDS011;11136;48.778;9.126;2023-05-07T01:13:52;4.35;;;2.22;;
21943;SDS011;11136;48.778;9.126;2023-05-07T01:16:18;3.20;;;2.40;;
21943;SDS011;11136;48.778;9.126;2023-05-07T01:18:44;5.70;;;2.75;;
21943;SDS011;11136;48.778;9.126;2023-05-07T01:21:10;6.43;;;2.35;;
21943;SDS011;11136;48.778;9.126;2023-05-07T01:23:36;2.63;;;2.05;;
21943;SDS011;11136;48.778;9.126;2023-05-07T01:26:03;3.20;;;2.30;;
21943;SDS011;11136;48.778;9.126;2023-05-07T01:28:28;6.53;;;2.63;;
21943;SDS011;11136;48.778;9.126;2023-05-07T01:30:54;2.65;;;2.42;;
21943;SDS011;11136;48.778;9.126;2023-05-07T01:33:24;3.20;;;2.38;;
21943;SDS011;11136;48.778;9.126;2023-05-07T01:35:55;4.70;;;3.07;;
21943;SDS011;11136;48.778;9.126;2023-05-07T01:38:23;3.20;;;2.50;;
21943;SDS011;11136;48.778;9.126;2023-05-07T01:40:49;3.22;;;2.17;;
21943;SDS011;11136;48.778;9.126;2023-05-07T01:43:15;3.15;;;2.30;;
21943;SDS011;11136;48.778;9.126;2023-05-07T01:45:41;4.78;;;2.10;;
21943;SDS011;11136;48.778;9.126;2023-05-07T01:48:07;5.20;;;2.55;;
21943;SDS011;11136;48.778;9.126;2023-05-07T01:53:36;3.25;;;2.50;;
21943;SDS011;11136;48.778;9.126;2023-05-07T01:56:02;3.17;;;2.30;;
21943;SDS011;11136;48.778;9.126;2023-05-07T01:58:28;5.03;;;2.88;;
21943;SDS011;11136;48.778;9.126;2023-05-07T02:00:53;4.05;;;2.47;;
21943;SDS011;11136;48.778;9.126;2023-05-07T02:03:19;3.75;;;2.78;;
21943;SDS011;11136;48.778;9.126;2023-05-07T02:05:45;3.30;;;2.50;;
21943;SDS011;11136;48.778;9.126;2023-05-07T02:08:10;5.20;;;2.50;;
21943;SDS011;11136;48.778;9.126;2023-05-07T02:10:36;3.20;;;2.28;;
21943;SDS011;11136;48.778;9.126;2023-05-07T02:13:01;4.82;;;2.35;;
21943;SDS011;11136;48.778;9.126;2023-05-07T02:15:27;3.50;;;2.60;;
21943;SDS011;11136;48.778;9.126;2023-05-07T02:18:05;5.93;;;2.97;;
21943;SDS011;11136;48.778;9.126;2023-05-07T02:20:34;4.07;;;2.53;;
21943;SDS011;11136;48.778;9.126;2023-05-07T02:23:00;6.63;;;2.92;;
21943;SDS011;11136;48.778;9.126;2023-05-07T02:25:25;3.22;;;2.75;;
21943;SDS011;11136;48.778;9.126;2023-05-07T02:27:51;7.57;;;2.67;;
21943;SDS011;11136;48.778;9.126;2023-05-07T02:30:17;5.97;;;2.38;;
21943;SDS011;11136;48.778;9.126;2023-05-07T02:32:43;8.93;;;3.20;;
21943;SDS011;11136;48.778;9.126;2023-05-07T02:35:09;3.90;;;2.60;;
21943;SDS011;11136;48.778;9.126;2023-05-07T02:37:35;5.38;;;2.40;;
21943;SDS011;11136;48.778;9.126;2023-05-07T02:40:00;5.07;;;2.30;;
21943;SDS011;11136;48.778;9.126;2023-05-07T02:42:26;4.00;;;2.60;;
21943;SDS011;11136;48.778;9.126;2023-05-07T02:44:51;4.45;;;2.63;;
21943;SDS011;11136;48.778;9.126;2023-05-07T02:47:17;3.55;;;2.70;;
21943;SDS011;11136;48.778;9.126;2023-05-07T02:49:43;5.95;;;2.40;;
21943;SDS011;11136;48.778;9.126;2023-05-07T02:52:08;6.72;;;2.90;;
21943;SDS011;11136;48.778;9.126;2023-05-07T02:54:34;3.75;;;2.40;;
21943;SDS011;11136;48.778;9.126;2023-05-07T02:56:59;5.93;;;2.88;;
21943;SDS011;11136;48.778;9.126;2023-05-07T02:59:25;4.47;;;3.08;;
21943;SDS011;11136;48.778;9.126;2023-05-07T03:01:51;3.15;;;2.58;;
21943;SDS011;11136;48.778;9.126;2023-05-07T03:04:17;3.53;;;2.13;;
21943;SDS011;11136;48.778;9.126;2023-05-07T03:06:42;4.53;;;2.55;;
21943;SDS011;11136;48.778;9.126;2023-05-07T03:09:08;4.47;;;2.65;;
21943;SDS011;11136;48.778;9.126;2023-05-07T03:11:33;3.65;;;1.85;;
21943;SDS011;11136;48.778;9.126;2023-05-07T03:14:01;2.75;;;1.90;;
21943;SDS011;11136;48.778;9.126;2023-05-07T03:16:27;4.80;;;2.08;;
21943;SDS011;11136;48.778;9.126;2023-05-07T03:18:53;6.70;;;2.30;;
21943;SDS011;11136;48.778;9.126;2023-05-07T03:21:18;3.67;;;2.28;;
21943;SDS011;11136;48.778;9.126;2023-05-07T03:23:44;4.65;;;2.08;;
21943;SDS011;11136;48.778;9.126;2023-05-07T03:26:10;3.30;;;2.28;;
21943;SDS011;11136;48.778;9.126;2023-05-07T03:28:36;4.35;;;2.10;;
21943;SDS011;11136;48.778;9.126;2023-05-07T03:31:02;3.70;;;2.30;;
21943;SDS011;11136;48.778;9.126;2023-05-07T03:33:27;2.67;;;2.38;;
21943;SDS011;11136;48.778;9.126;2023-05-07T03:35:53;2.67;;;2.35;;
21943;SDS011;11136;48.778;9.126;2023-05-07T03:38:20;5.18;;;2.50;;
21943;SDS011;11136;48.778;9.126;2023-05-07T03:40:45;2.83;;;2.00;;
21943;SDS011;11136;48.778;9.126;2023-05-07T03:43:11;2.83;;;2.22;;
21943;SDS011;11136;48.778;9.126;2023-05-07T03:45:37;1.98;;;1.77;;
21943;SDS011;11136;48.778;9.126;2023-05-07T03:48:02;6.97;;;2.20;;
21943;SDS011;11136;48.778;9.126;2023-05-07T03:50:28;1.98;;;1.70;;
21943;SDS011;11136;48.778;9.126;2023-05-07T03:52:53;2.95;;;2.33;;
21943;SDS011;11136;48.778;9.126;2023-05-07T03:55:19;3.20;;;2.25;;
21943;SDS011;11136;48.778;9.126;2023-05-07T03:57:47;4.80;;;1.98;;
21943;SDS011;11136;48.778;9.126;2023-05-07T04:00:12;4.50;;;1.77;;
21943;SDS011;11136;48.778;9.126;2023-05-07T04:02:39;6.60;;;2.15;;
21943;SDS011;11136;48.778;9.126;2023-05-07T04:05:04;2.85;;;2.10;;
21943;SDS011;11136;48.778;9.126;2023-05-07T04:07:30;3.80;;;2.40;;
21943;SDS011;11136;48.778;9.126;2023-05-07T04:09:56;4.35;;;2.20;;
21943;SDS011;11136;48.778;9.126;2023-05-07T04:12:21;2.78;;;1.95;;
21943;SDS011;11136;48.778;9.126;2023-05-07T04:14:47;2.85;;;1.65;;
21943;SDS011;11136;48.778;9.126;2023-05-07T04:17:12;1.98;;;1.63;;
21943;SDS011;11136;48.778;9.126;2023-05-07T04:19:38;2.83;;;1.48;;
21943;SDS011;11136;48.778;9.126;2023-05-07T04:22:04;1.77;;;1.40;;
21943;SDS011;11136;48.778;9.126;2023-05-07T04:24:32;3.55;;;1.80;;
21943;SDS011;11136;48.778;9.126;2023-05-07T04:26:58;3.53;;;1.75;;
21943;SDS011;11136;48.778;9.126;2023-05-07T04:29:23;2.65;;;1.73;;
21943;SDS011;11136;48.778;9.126;2023-05-07T04:31:49;3.65;;;1.92;;
21943;SDS011;11136;48.778;9.126;2023-05-07T04:34:14;2.88;;;1.60;;
21943;SDS011;11136;48.778;9.126;2023-05-07T04:36:41;4.60;;;1.67;;
21943;SDS011;11136;48.778;9.126;2023-05-07T04:39:07;6.25;;;1.95;;
21943;SDS011;11136;48.778;9.126;2023-05-07T04:41:35;2.03;;;1.70;;
21943;SDS011;11136;48.778;9.126;2023-05-07T04:44:01;1.73;;;1.50;;
21943;SDS011;11136;48.778;9.126;2023-05-07T04:46:28;3.83;;;1.50;;
21943;SDS011;11136;48.778;9.126;2023-05-07T04:48:54;2.72;;;1.85;;
21943;SDS011;11136;48.778;9.126;2023-05-07T04:51:20;2.22;;;1.80;;
21943;SDS011;11136;48.778;9.126;2023-05-07T04:53:46;3.45;;;1.83;;
21943;SDS011;11136;48.778;9.126;2023-05-07T04:56:11;4.03;;;1.73;;
21943;SDS011;11136;48.778;9.126;2023-05-07T04:58:37;2.13;;;1.73;;
21943;SDS011;11136;48.778;9.126;2023-05-07T05:01:03;2.22;;;1.48;;
21943;SDS011;11136;48.778;9.126;2023-05-07T05:03:29;3.45;;;1.67;;
21943;SDS011;11136;48.778;9.126;2023-05-07T05:05:55;4.25;;;1.70;;
21943;SDS011;11136;48.778;9.126;2023-05-07T05:08:22;2.13;;;1.90;;
21943;SDS011;11136;48.778;9.126;2023-05-07T05:10:47;6.05;;;1.95;;
21943;SDS011;11136;48.778;9.126;2023-05-07T05:13:14;6.90;;;1.77;;
21943;SDS011;11136;48.778;9.126;2023-05-07T05:15:47;2.97;;;1.92;;
21943;SDS011;11136;48.778;9.126;2023-05-07T05:18:13;2.55;;;2.00;;
21943;SDS011;11136;48.778;9.126;2023-05-07T05:20:38;2.30;;;1.70;;
21943;SDS011;11136;48.778;9.126;2023-05-07T05:23:04;4.05;;;1.80;;
21943;SDS011;11136;48.778;9.126;2023-05-07T05:25:30;3.97;;;1.50;;
21943;SDS011;11136;48.778;9.126;2023-05-07T05:27:56;6.47;;;2.10;;
21943;SDS011;11136;48.778;9.126;2023-05-07T05:30:22;2.13;;;1.70;;
21943;SDS011;11136;48.778;9.126;2023-05-07T05:32:47;2.90;;;1.77;;
21943;SDS011;11136;48.778;9.126;2023-05-07T05:35:13;4.22;;;1.83;;
21943;SDS011;11136;48.778;9.126;2023-05-07T05:37:39;2.33;;;1.90;;
21943;SDS011;11136;48.778;9.126;2023-05-07T05:40:04;3.05;;;2.17;;
21943;SDS011;11136;48.778;9.126;2023-05-07T05:42:30;3.50;;;2.10;;
21943;SDS011;11136;48.778;9.126;2023-05-07T05:44:56;3.72;;;1.65;;
21943;SDS011;11136;48.778;9.126;2023-05-07T05:47:22;3.03;;;1.90;;
21943;SDS011;11136;48.778;9.126;2023-05-07T05:49:47;2.53;;;1.73;;
21943;SDS011;11136;48.778;9.126;2023-05-07T05:52:14;2.70;;;1.88;;
21943;SDS011;11136;48.778;9.126;2023-05-07T05:54:41;4.00;;;2.20;;
21943;SDS011;11136;48.778;9.126;2023-05-07T05:57:07;3.05;;;2.10;;
21943;SDS011;11136;48.778;9.126;2023-05-07T05:59:33;3.20;;;2.17;;
21943;SDS011;11136;48.778;9.126;2023-05-07T06:01:58;3.60;;;2.38;;
21943;SDS011;11136;48.778;9.126;2023-05-07T06:04:24;2.97;;;1.77;;
21943;SDS011;11136;48.778;9.126;2023-05-07T06:06:50;5.88;;;2.03;;
21943;SDS011;11136;48.778;9.126;2023-05-07T06:09:15;2.45;;;1.80;;
21943;SDS011;11136;48.778;9.126;2023-05-07T06:11:42;3.40;;;2.10;;
21943;SDS011;11136;48.778;9.126;2023-05-07T06:14:07;5.25;;;2.40;;
21943;SDS011;11136;48.778;9.126;2023-05-07T06:16:33;3.17;;;2.50;;
21943;SDS011;11136;48.778;9.126;2023-05-07T06:18:59;2.50;;;2.30;;
21943;SDS011;11136;48.778;9.126;2023-05-07T06:21:24;6.28;;;2.33;;
21943;SDS011;11136;48.778;9.126;2023-05-07T06:23:50;5.32;;;2.90;;
21943;SDS011;11136;48.778;9.126;2023-05-07T06:26:17;3.25;;;2.33;;
21943;SDS011;11136;48.778;9.126;2023-05-07T06:28:42;3.78;;;2.75;;
21943;SDS011;11136;48.778;9.126;2023-05-07T06:31:14;3.70;;;2.80;;
21943;SDS011;11136;48.778;9.126;2023-05-07T06:33:41;3.13;;;2.70;;
21943;SDS011;11136;48.778;9.126;2023-05-07T06:36:07;5.13;;;2.63;;
21943;SDS011;11136;48.778;9.126;2023-05-07T06:38:33;3.78;;;2.53;;
21943;SDS011;11136;48.778;9.126;2023-05-07T06:40:58;4.05;;;2.65;;
21943;SDS011;11136;48.778;9.126;2023-05-07T06:43:24;5.53;;;2.88;;
21943;SDS011;11136;48.778;9.126;2023-05-07T06:45:49;3.63;;;2.50;;
21943;SDS011;11136;48.778;9.126;2023-05-07T06:48:15;7.30;;;3.05;;
21943;SDS011;11136;48.778;9.126;2023-05-07T06:50:41;5.53;;;3.38;;
21943;SDS011;11136;48.778;9.126;2023-05-07T06:53:07;4.63;;;2.97;;
21943;SDS011;11136;48.778;9.126;2023-05-07T06:55:32;5.13;;;2.90;;
21943;SDS011;11136;48.778;9.126;2023-05-07T06:57:58;5.50;;;3.42;;
21943;SDS011;11136;48.778;9.126;2023-05-07T07:00:26;6.70;;;3.67;;
21943;SDS011;11136;48.778;9.126;2023-05-07T07:02:52;5.80;;;3.38;;
21943;SDS011;11136;48.778;9.126;2023-05-07T07:05:18;5.10;;;3.15;;
21943;SDS011;11136;48.778;9.126;2023-05-07T07:07:44;5.93;;;3.70;;
21943;SDS011;11136;48.778;9.126;2023-05-07T07:10:09;4.75;;;3.70;;
21943;SDS011;11136;48.778;9.126;2023-05-07T07:12:35;7.07;;;3.58;;
21943;SDS011;11136;48.778;9.126;2023-05-07T07:15:00;4.85;;;2.88;;
21943;SDS011;11136;48.778;9.126;2023-05-07T07:17:27;4.53;;;3.13;;
21943;SDS011;11136;48.778;9.126;2023-05-07T07:19:53;4.82;;;3.17;;
21943;SDS011;11136;48.778;9.126;2023-05-07T07:22:19;4.88;;;3.22;;
21943;SDS011;11136;48.778;9.126;2023-05-07T07:24:44;3.70;;;3.03;;
21943;SDS011;11136;48.778;9.126;2023-05-07T07:27:10;3.80;;;3.05;;
21943;SDS011;11136;48.778;9.126;2023-05-07T07:29:35;3.58;;;2.92;;
21943;SDS011;11136;48.778;9.126;2023-05-07T07:32:01;3.53;;;2.80;;
21943;SDS011;11136;48.778;9.126;2023-05-07T07:34:27;3.95;;;2.65;;
21943;SDS011;11136;48.778;9.126;2023-05-07T07:36:52;7.38;;;2.67;;
21943;SDS011;11136;48.778;9.126;2023-05-07T07:39:18;5.20;;;3.30;;
21943;SDS011;11136;48.778;9.126;2023-05-07T07:41:43;4.25;;;2.83;;
21943;SDS011;11136;48.778;9.126;2023-05-07T07:44:09;3.63;;;2.88;;
21943;SDS011;11136;48.778;9.126;2023-05-07T07:46:37;4.10;;;2.78;;
21943;SDS011;11136;48.778;9.126;2023-05-07T07:49:03;5.32;;;3.30;;
21943;SDS011;11136;48.778;9.126;2023-05-07T07:51:28;8.57;;;2.88;;
21943;SDS011;11136;48.778;9.126;2023-05-07T07:53:55;5.85;;;2.63;;
21943;SDS011;11136;48.778;9.126;2023-05-07T07:56:22;6.13;;;2.90;;
21943;SDS011;11136;48.778;9.126;2023-05-07T07:58:49;6.43;;;3.10;;
21943;SDS011;11136;48.778;9.126;2023-05-07T08:01:14;2.95;;;2.70;;
21943;SDS011;11136;48.778;9.126;2023-05-07T08:03:41;4.53;;;3.10;;
21943;SDS011;11136;48.778;9.126;2023-05-07T08:06:07;5.88;;;3.13;;
21943;SDS011;11136;48.778;9.126;2023-05-07T08:08:32;6.07;;;2.45;;
21943;SDS011;11136;48.778;9.126;2023-05-07T08:10:58;3.15;;;2.75;;
21943;SDS011;11136;48.778;9.126;2023-05-07T08:13:23;5.63;;;2.60;;
21943;SDS011;11136;48.778;9.126;2023-05-07T08:15:49;5.38;;;2.40;;
21943;SDS011;11136;48.778;9.126;2023-05-07T08:18:15;2.88;;;2.40;;
21943;SDS011;11136;48.778;9.126;2023-05-07T08:20:40;3.47;;;2.55;;
21943;SDS011;11136;48.778;9.126;2023-05-07T08:23:06;3.58;;;2.40;;
21943;SDS011;11136;48.778;9.126;2023-05-07T08:25:35;3.95;;;2.03;;
21943;SDS011;11136;48.778;9.126;2023-05-07T08:28:01;2.80;;;2.20;;
21943;SDS011;11136;48.778;9.126;2023-05-07T08:30:28;2.67;;;2.38;;
21943;SDS011;11136;48.778;9.126;2023-05-07T08:32:54;4.05;;;2.30;;
21943;SDS011;11136;48.778;9.126;2023-05-07T08:35:19;5.45;;;2.38;;
21943;SDS011;11136;48.778;9.126;2023-05-07T08:37:45;3.75;;;2.53;;
21943;SDS011;11136;48.778;9.126;2023-05-07T08:40:11;4.00;;;2.53;;
21943;SDS011;11136;48.778;9.126;2023-05-07T08:42:36;3.65;;;2.00;;
21943;SDS011;11136;48.778;9.126;2023-05-07T08:45:03;3.85;;;2.55;;
21943;SDS011;11136;48.778;9.126;2023-05-07T08:47:42;6.35;;;2.42;;
21943;SDS011;11136;48.778;9.126;2023-05-07T08:50:12;3.13;;;2.42;;
21943;SDS011;11136;48.778;9.126;2023-05-07T08:52:38;3.95;;;2.70;;
21943;SDS011;11136;48.778;9.126;2023-05-07T08:55:05;3.50;;;2.15;;
21943;SDS011;11136;48.778;9.126;2023-05-07T08:57:32;5.93;;;2.20;;
21943;SDS011;11136;48.778;9.126;2023-05-07T08:59:57;4.53;;;2.30;;
21943;SDS011;11136;48.778;9.126;2023-05-07T09:02:23;4.43;;;2.20;;
21943;SDS011;11136;48.778;9.126;2023-05-07T09:04:49;5.38;;;1.98;;
21943;SDS011;11136;48.778;9.126;2023-05-07T09:07:15;6.70;;;2.35;;
21943;SDS011;11136;48.778;9.126;2023-05-07T09:09:43;3.70;;;2.03;;
21943;SDS011;11136;48.778;9.126;2023-05-07T09:12:09;2.38;;;1.83;;
21943;SDS011;11136;48.778;9.126;2023-05-07T09:14:35;3.70;;;2.40;;
21943;SDS011;11136;48.778;9.126;2023-05-07T09:17:00;4.15;;;2.15;;
21943;SDS011;11136;48.778;9.126;2023-05-07T09:19:26;2.70;;;2.33;;
21943;SDS011;11136;48.778;9.126;2023-05-07T09:22:02;2.88;;;1.77;;
21943;SDS011;11136;48.778;9.126;2023-05-07T09:24:29;2.63;;;1.95;;
21943;SDS011;11136;48.778;9.126;2023-05-07T09:26:59;2.72;;;1.73;;
21943;SDS011;11136;48.778;9.126;2023-05-07T09:29:26;2.30;;;1.60;;
21943;SDS011;11136;48.778;9.126;2023-05-07T09:31:54;2.60;;;2.00;;
21943;SDS011;11136;48.778;9.126;2023-05-07T09:34:20;4.43;;;1.90;;
21943;SDS011;11136;48.778;9.126;2023-05-07T09:36:46;3.03;;;1.73;;
21943;SDS011;11136;48.778;9.126;2023-05-07T09:39:12;4.10;;;1.85;;
21943;SDS011;11136;48.778;9.126;2023-05-07T09:41:44;2.70;;;1.70;;
21943;SDS011;11136;48.778;9.126;2023-05-07T09:44:10;2.75;;;1.90;;
21943;SDS011;11136;48.778;9.126;2023-05-07T09:46:36;5.72;;;1.85;;
21943;SDS011;11136;48.778;9.126;2023-05-07T09:49:03;1.70;;;1.58;;
21943;SDS011;11136;48.778;9.126;2023-05-07T09:51:38;4.88;;;2.22;;
21943;SDS011;11136;48.778;9.126;2023-05-07T09:54:08;1.58;;;1.38;;
21943;SDS011;11136;48.778;9.126;2023-05-07T09:56:34;2.72;;;1.60;;
21943;SDS011;11136;48.778;9.126;2023-05-07T09:59:02;4.15;;;1.83;;
21943;SDS011;11136;48.778;9.126;2023-05-07T10:01:31;2.60;;;1.50;;
21943;SDS011;11136;48.778;9.126;2023-05-07T10:03:57;3.22;;;2.03;;
21943;SDS011;11136;48.778;9.126;2023-05-07T10:06:24;5.03;;;2.00;;
21943;SDS011;11136;48.778;9.126;2023-05-07T10:08:53;3.38;;;1.40;;
21943;SDS011;11136;48.778;9.126;2023-05-07T10:11:21;5.03;;;1.95;;
21943;SDS011;11136;48.778;9.126;2023-05-07T10:13:48;4.22;;;2.08;;
21943;SDS011;11136;48.778;9.126;2023-05-07T10:16:14;4.07;;;2.28;;
21943;SDS011;11136;48.778;9.126;2023-05-07T10:18:43;3.42;;;2.08;;
21943;SDS011;11136;48.778;9.126;2023-05-07T10:21:13;4.30;;;1.90;;
21943;SDS011;11136;48.778;9.126;2023-05-07T10:23:46;4.43;;;1.83;;
21943;SDS011;11136;48.778;9.126;2023-05-07T10:26:24;3.42;;;1.92;;
21943;SDS011;11136;48.778;9.126;2023-05-07T10:28:57;14.90;;;1.70;;
21943;SDS011;11136;48.778;9.126;2023-05-07T10:34:07;1.85;;;1.38;;
21943;SDS011;11136;48.778;9.126;2023-05-07T10:36:35;12.15;;;2.10;;
21943;SDS011;11136;48.778;9.126;2023-05-07T10:39:01;2.17;;;1.75;;
21943;SDS011;11136;48.778;9.126;2023-05-07T10:41:27;4.45;;;1.50;;
21943;SDS011;11136;48.778;9.126;2023-05-07T10:43:52;2.08;;;1.70;;
21943;SDS011;11136;48.778;9.126;2023-05-07T10:46:18;3.13;;;1.65;;
21943;SDS011;11136;48.778;9.126;2023-05-07T10:51:27;3.10;;;1.42;;
21943;SDS011;11136;48.778;9.126;2023-05-07T10:56:36;3.05;;;1.88;;
21943;SDS011;11136;48.778;9.126;2023-05-07T11:04:23;2.22;;;1.60;;
21943;SDS011;11136;48.778;9.126;2023-05-07T11:15:04;4.07;;;2.00;;
21943;SDS011;11136;48.778;9.126;2023-05-07T11:17:34;2.88;;;1.50;;
21943;SDS011;11136;48.778;9.126;2023-05-07T11:20:16;2.70;;;1.77;;
21943;SDS011;11136;48.778;9.126;2023-05-07T11:22:42;1.88;;;1.40;;
21943;SDS011;11136;48.778;9.126;2023-05-07T11:25:08;5.07;;;1.80;;
21943;SDS011;11136;48.778;9.126;2023-05-07T11:27:33;3.78;;;1.70;;
21943;SDS011;11136;48.778;9.126;2023-05-07T11:29:59;4.85;;;1.90;;
21943;SDS011;11136;48.778;9.126;2023-05-07T11:32:30;2.85;;;1.75;;
21943;SDS011;11136;48.778;9.126;2023-05-07T11:34:59;2.40;;;1.50;;
21943;SDS011;11136;48.778;9.126;2023-05-07T11:37:26;5.63;;;1.73;;
21943;SDS011;11136;48.778;9.126;2023-05-07T11:40:07;2.88;;;1.80;;
21943;SDS011;11136;48.778;9.126;2023-05-07T11:42:36;6.72;;;1.83;;
21943;SDS011;11136;48.778;9.126;2023-05-07T11:45:03;6.22;;;2.25;;
21943;SDS011;11136;48.778;9.126;2023-05-07T11:47:30;11.65;;;3.47;;
21943;SDS011;11136;48.778;9.126;2023-05-07T11:49:57;13.35;;;4.53;;
21943;SDS011;11136;48.778;9.126;2023-05-07T11:52:33;16.67;;;4.68;;
21943;SDS011;11136;48.778;9.126;2023-05-07T11:54:59;3.85;;;1.80;;
21943;SDS011;11136;48.778;9.126;2023-05-07T11:57:26;4.78;;;2.58;;
21943;SDS011;11136;48.778;9.126;2023-05-07T11:59:55;8.88;;;3.20;;
21943;SDS011;11136;48.778;9.126;2023-05-07T12:02:23;7.93;;;3.40;;
21943;SDS011;11136;48.778;9.126;2023-05-07T12:04:53;10.48;;;3.53;;
21943;SDS011;11136;48.778;9.126;2023-05-07T12:07:19;11.52;;;3.88;;
21943;SDS011;11136;48.778;9.126;2023-05-07T12:09:45;7.82;;;3.47;;
21943;SDS011;11136;48.778;9.126;2023-05-07T12:12:12;8.32;;;4.43;;
21943;SDS011;11136;48.778;9.126;2023-05-07T12:14:40;9.90;;;4.32;;
21943;SDS011;11136;48.778;9.126;2023-05-07T12:17:07;11.27;;;3.65;;
21943;SDS011;11136;48.778;9.126;2023-05-07T12:19:38;7.95;;;3.42;;
21943;SDS011;11136;48.778;9.126;2023-05-07T12:22:05;8.38;;;2.78;;
21943;SDS011;11136;48.778;9.126;2023-05-07T12:27:11;6.70;;;2.50;;
21943;SDS011;11136;48.778;9.126;2023-05-07T12:29:37;5.55;;;2.83;;
21943;SDS011;11136;48.778;9.126;2023-05-07T12:32:12;6.53;;;2.35;;
21943;SDS011;11136;48.778;9.126;2023-05-07T12:34:40;5.25;;;1.92;;
21943;SDS011;11136;48.778;9.126;2023-05-07T12:37:05;10.15;;;2.80;;
21943;SDS011;11136;48.778;9.126;2023-05-07T12:39:31;8.35;;;3.40;;
21943;SDS011;11136;48.778;9.126;2023-05-07T12:41:58;8.77;;;2.72;;
21943;SDS011;11136;48.778;9.126;2023-05-07T12:44:33;4.38;;;2.70;;
21943;SDS011;11136;48.778;9.126;2023-05-07T12:47:02;7.22;;;2.47;;
21943;SDS011;11136;48.778;9.126;2023-05-07T12:49:28;5.25;;;2.38;;
21943;SDS011;11136;48.778;9.126;2023-05-07T12:51:54;4.18;;;1.85;;
21943;SDS011;11136;48.778;9.126;2023-05-07T12:54:33;3.92;;;1.73;;
21943;SDS011;11136;48.778;9.126;2023-05-07T12:57:06;5.05;;;2.50;;
21943;SDS011;11136;48.778;9.126;2023-05-07T12:59:34;3.65;;;2.20;;
21943;SDS011;11136;48.778;9.126;2023-05-07T13:04:30;8.45;;;2.80;;
21943;SDS011;11136;48.778;9.126;2023-05-07T13:06:56;5.55;;;1.92;;
21943;SDS011;11136;48.778;9.126;2023-05-07T13:09:22;6.70;;;2.38;;
21943;SDS011;11136;48.778;9.126;2023-05-07T13:11:48;5.22;;;1.70;;
21943;SDS011;11136;48.778;9.126;2023-05-07T13:14:14;2.88;;;1.52;;
21943;SDS011;11136;48.778;9.126;2023-05-07T13:16:40;4.80;;;1.40;;
21943;SDS011;11136;48.778;9.126;2023-05-07T13:19:05;3.58;;;1.50;;
21943;SDS011;11136;48.778;9.126;2023-05-07T13:21:31;6.53;;;1.63;;
21943;SDS011;11136;48.778;9.126;2023-05-07T13:23:57;10.25;;;1.40;;
21943;SDS011;11136;48.778;9.126;2023-05-07T13:26:23;2.35;;;1.55;;
21943;SDS011;11136;48.778;9.126;2023-05-07T13:28:49;3.20;;;1.20;;
21943;SDS011;11136;48.778;9.126;2023-05-07T13:31:16;2.03;;;1.40;;
21943;SDS011;11136;48.778;9.126;2023-05-07T13:33:42;4.18;;;1.10;;
21943;SDS011;11136;48.778;9.126;2023-05-07T13:36:08;3.28;;;1.20;;
21943;SDS011;11136;48.778;9.126;2023-05-07T13:38:34;2.53;;;1.23;;
21943;SDS011;11136;48.778;9.126;2023-05-07T13:41:00;3.67;;;1.58;;
21943;SDS011;11136;48.778;9.126;2023-05-07T13:43:26;1.95;;;1.10;;
21943;SDS011;11136;48.778;9.126;2023-05-07T13:45:52;3.08;;;1.55;;
21943;SDS011;11136;48.778;9.126;2023-05-07T13:48:18;3.53;;;1.33;;
21943;SDS011;11136;48.778;9.126;2023-05-07T13:50:43;5.50;;;1.60;;
21943;SDS011;11136;48.778;9.126;2023-05-07T13:53:09;3.90;;;1.63;;
21943;SDS011;11136;48.778;9.126;2023-05-07T13:55:35;2.15;;;1.13;;
21943;SDS011;11136;48.778;9.126;2023-05-07T13:58:01;1.38;;;1.23;;
21943;SDS011;11136;48.778;9.126;2023-05-07T14:00:29;2.28;;;1.23;;
21943;SDS011;11136;48.778;9.126;2023-05-07T14:02:55;3.58;;;1.30;;
21943;SDS011;11136;48.778;9.126;2023-05-07T14:05:21;1.35;;;1.00;;
21943;SDS011;11136;48.778;9.126;2023-05-07T14:07:48;1.05;;;0.90;;
21943;SDS011;11136;48.778;9.126;2023-05-07T14:10:18;2.58;;;1.40;;
21943;SDS011;11136;48.778;9.126;2023-05-07T14:12:44;2.45;;;1.35;;
21943;SDS011;11136;48.778;9.126;2023-05-07T14:15:11;5.50;;;1.95;;
21943;SDS011;11136;48.778;9.126;2023-05-07T14:17:37;3.63;;;1.42;;
21943;SDS011;11136;48.778;9.126;2023-05-07T14:20:03;4.78;;;2.05;;
21943;SDS011;11136;48.778;9.126;2023-05-07T14:22:29;2.20;;;1.50;;
21943;SDS011;11136;48.778;9.126;2023-05-07T14:24:54;3.53;;;1.95;;
21943;SDS011;11136;48.778;9.126;2023-05-07T14:27:20;5.35;;;2.17;;
21943;SDS011;11136;48.778;9.126;2023-05-07T14:29:45;5.75;;;2.63;;
21943;SDS011;11136;48.778;9.126;2023-05-07T14:32:15;3.28;;;2.00;;
21943;SDS011;11136;48.778;9.126;2023-05-07T14:34:44;3.33;;;1.80;;
21943;SDS011;11136;48.778;9.126;2023-05-07T14:37:10;2.67;;;1.83;;
21943;SDS011;11136;48.778;9.126;2023-05-07T14:39:36;5.50;;;1.77;;
21943;SDS011;11136;48.778;9.126;2023-05-07T14:42:02;3.28;;;2.03;;
21943;SDS011;11136;48.778;9.126;2023-05-07T14:44:28;2.97;;;2.00;;
21943;SDS011;11136;48.778;9.126;2023-05-07T14:46:54;6.05;;;2.10;;
21943;SDS011;11136;48.778;9.126;2023-05-07T14:49:20;2.50;;;1.83;;
21943;SDS011;11136;48.778;9.126;2023-05-07T14:51:45;1.90;;;1.70;;
21943;SDS011;11136;48.778;9.126;2023-05-07T14:54:15;2.25;;;1.67;;
21943;SDS011;11136;48.778;9.126;2023-05-07T14:56:41;3.33;;;1.98;;
21943;SDS011;11136;48.778;9.126;2023-05-07T14:59:07;3.25;;;1.70;;
21943;SDS011;11136;48.778;9.126;2023-05-07T15:01:36;2.95;;;1.40;;
21943;SDS011;11136;48.778;9.126;2023-05-07T15:04:03;2.50;;;1.90;;
21943;SDS011;11136;48.778;9.126;2023-05-07T15:06:29;4.05;;;1.98;;
21943;SDS011;11136;48.778;9.126;2023-05-07T15:08:56;2.70;;;1.88;;
21943;SDS011;11136;48.778;9.126;2023-05-07T15:11:21;4.40;;;2.00;;
21943;SDS011;11136;48.778;9.126;2023-05-07T15:13:47;4.13;;;2.00;;